Highland Falls, New York
Current Conditions -  °F | °C
As of 8:45 AM on Tuesday 27 Jan 2015 (Local Time) from KSWF Reporting Station
Light Snow Light Snow  
Wind Chill:   Ceiling: 5000
Heat Index: 19°   Visibility: 5mi
Dew Point: 12°   Wind: 9mph
Humidity: 74%   Direction: 30°NNE
Pressure: 29.74"   Gusts: NA
Location:  41.37°N, 73.97°W
Report Text: KSWF 271345Z 03008KT 5SM -SN BR SCT020 OVC050 M07/M11 A2974
Loading
Personal Weather Stations






























Interactive Weather Map New forecast layout! Learn more

10-Day Weather Forecast

Advertisements
Track Severe Weather on mobile